Time;durP1;ratioP1;P1;durP2;ratioP2;P2;SDS_P1;SDS_P2;PMS_P1;PMS_P2;Temp;Humidity;BMP_temperature;BMP_pressure;BME280_temperature;BME280_humidity;BME280_pressure;Samples;Min_cycle;Max_cycle;Signal;HPM_P1;HPM_P2
2022/08/02 00:01:52;;;;;;;;;;;18.20;99.90;;;;;;5105375;28;19924;-77
2022/08/02 00:04:19;;;;;;;;;;;18.20;99.90;;;;;;5108048;28;20010;-77
2022/08/02 00:06:45;;;;;;;;;;;18.10;99.90;;;;;;5096721;28;20027;-79
2022/08/02 00:09:15;;;;;;;;;;;18.10;99.90;;;;;;5101790;28;20018;-78
2022/08/02 00:11:41;;;;;;;;;;;18.10;99.90;;;;;;5109027;28;20014;-79
2022/08/02 00:14:08;;;;;;;;;;;18.00;99.90;;;;;;5101026;28;20364;-78
2022/08/02 00:16:35;;;;;;;;;;;18.00;99.90;;;;;;5108375;28;19924;-79
2022/08/02 00:19:01;;;;;;;;;;;17.90;99.90;;;;;;5102813;28;20014;-79
2022/08/02 00:21:28;;;;;;;;;;;17.90;99.90;;;;;;5106155;28;19939;-78
2022/08/02 00:23:55;;;;;;;;;;;17.90;99.90;;;;;;5104571;28;20011;-77
2022/08/02 00:26:23;;;;;;;;;;;17.90;99.90;;;;;;5097869;28;20018;-77
2022/08/02 00:28:50;;;;;;;;;;;17.90;99.90;;;;;;5103252;28;19971;-77
2022/08/02 00:31:16;;;;;;;;;;;17.80;99.90;;;;;;5103916;28;20492;-78
2022/08/02 00:33:43;;;;;;;;;;;17.80;99.90;;;;;;5100363;28;19982;-77
2022/08/02 00:36:10;;;;;;;;;;;17.70;99.90;;;;;;5099222;28;21639;-76
2022/08/02 00:38:36;;;;;;;;;;;17.70;99.90;;;;;;5102733;28;19963;-76
2022/08/02 00:41:03;;;;;;;;;;;17.70;99.90;;;;;;5100910;28;20022;-76
2022/08/02 00:43:31;;;;;;;;;;;17.70;99.90;;;;;;5103758;28;20011;-76
2022/08/02 00:45:58;;;;;;;;;;;17.70;99.90;;;;;;5102814;28;19928;-76
2022/08/02 00:48:24;;;;;;;;;;;17.70;99.90;;;;;;5101507;28;19930;-76
2022/08/02 00:50:51;;;;;;;;;;;17.70;99.90;;;;;;5094721;28;20014;-77
2022/08/02 00:53:18;;;;;;;;;;;17.70;99.90;;;;;;5106781;28;19924;-77
2022/08/02 00:55:44;;;;;;;;;;;17.80;99.90;;;;;;5101994;27;20335;-77
2022/08/02 00:58:11;;;;;;;;;;;17.80;99.90;;;;;;5103479;28;19924;-77
2022/08/02 01:00:39;;;;;;;;;;;17.80;99.90;;;;;;5100868;28;20457;-78
2022/08/02 01:03:06;;;;;;;;;;;17.80;99.90;;;;;;5095442;28;20003;-78
2022/08/02 01:05:33;;;;;;;;;;;17.80;99.90;;;;;;5102248;28;19930;-77
2022/08/02 01:07:59;;;;;;;;;;;17.80;99.90;;;;;;5103231;28;20031;-77
2022/08/02 01:10:26;;;;;;;;;;;17.80;99.90;;;;;;5098402;28;20333;-78
2022/08/02 01:12:53;;;;;;;;;;;17.90;99.90;;;;;;5096623;28;20122;-78
2022/08/02 01:15:20;;;;;;;;;;;17.90;99.90;;;;;;5093269;28;19979;-77
2022/08/02 01:17:50;;;;;;;;;;;18.00;99.90;;;;;;5102711;28;19931;-78
2022/08/02 01:20:25;;;;;;;;;;;18.00;99.90;;;;;;5101853;28;20022;-77
2022/08/02 01:23:00;;;;;;;;;;;18.10;99.90;;;;;;5107972;28;19924;-76
2022/08/02 01:25:33;;;;;;;;;;;18.10;99.90;;;;;;5108128;28;20438;-77
2022/08/02 01:28:22;;;;;;;;;;;18.00;99.90;;;;;;5104621;28;19924;-76
2022/08/02 01:30:52;;;;;;;;;;;17.90;99.90;;;;;;5101984;28;19924;-77
2022/08/02 01:33:19;;;;;;;;;;;17.70;99.90;;;;;;5111827;28;20347;-77
2022/08/02 01:35:52;;;;;;;;;;;17.70;99.90;;;;;;5112450;28;20366;-76
2022/08/02 01:38:21;;;;;;;;;;;17.70;99.90;;;;;;5104864;28;19928;-77
2022/08/02 01:40:49;;;;;;;;;;;17.80;99.90;;;;;;5105246;28;19947;-77
2022/08/02 01:43:18;;;;;;;;;;;17.80;99.90;;;;;;5108232;28;19962;-80
2022/08/02 01:45:45;;;;;;;;;;;17.90;99.90;;;;;;5111810;28;20018;-78
2022/08/02 01:48:13;;;;;;;;;;;17.90;99.90;;;;;;5105531;27;20010;-78
2022/08/02 01:50:41;;;;;;;;;;;18.00;99.90;;;;;;5103118;28;20022;-77
2022/08/02 01:53:09;;;;;;;;;;;18.10;99.90;;;;;;5110838;28;19967;-77
2022/08/02 01:55:39;;;;;;;;;;;18.20;99.90;;;;;;5103849;28;20343;-77
2022/08/02 01:58:07;;;;;;;;;;;18.20;99.90;;;;;;5101536;28;19930;-79
2022/08/02 02:00:38;;;;;;;;;;;18.00;99.90;;;;;;5107986;28;19927;-79
2022/08/02 02:03:06;;;;;;;;;;;17.90;99.90;;;;;;5098434;28;19923;-79
2022/08/02 02:05:35;;;;;;;;;;;17.90;99.90;;;;;;5108701;28;19931;-79
2022/08/02 02:08:02;;;;;;;;;;;17.90;99.90;;;;;;5106638;28;20014;-79
2022/08/02 02:10:32;;;;;;;;;;;17.80;99.90;;;;;;5106204;28;20014;-79
2022/08/02 02:13:01;;;;;;;;;;;17.80;99.90;;;;;;5111000;28;20015;-79
2022/08/02 02:15:29;;;;;;;;;;;17.80;99.90;;;;;;5107452;28;20623;-79
2022/08/02 02:17:58;;;;;;;;;;;17.80;99.90;;;;;;5093400;28;19931;-78
2022/08/02 02:20:25;;;;;;;;;;;17.70;99.90;;;;;;5103244;28;20019;-78
2022/08/02 02:22:52;;;;;;;;;;;17.70;99.90;;;;;;5098744;28;19923;-78
2022/08/02 02:25:20;;;;;;;;;;;17.70;99.90;;;;;;5100109;28;19928;-77
2022/08/02 02:27:49;;;;;;;;;;;17.60;99.90;;;;;;5102880;28;19932;-77
2022/08/02 02:30:16;;;;;;;;;;;17.60;99.90;;;;;;5107684;28;20011;-77
2022/08/02 02:32:44;;;;;;;;;;;17.60;99.90;;;;;;5110856;28;19969;-76
2022/08/02 02:35:13;;;;;;;;;;;17.60;99.90;;;;;;5105599;28;19967;-76
2022/08/02 02:37:40;;;;;;;;;;;17.60;99.90;;;;;;5102290;28;20409;-76
2022/08/02 02:40:08;;;;;;;;;;;17.60;99.90;;;;;;5095865;28;19968;-79
2022/08/02 02:42:35;;;;;;;;;;;17.50;99.90;;;;;;5109823;28;20028;-77
2022/08/02 02:45:03;;;;;;;;;;;17.50;99.90;;;;;;5097690;28;19924;-77
2022/08/02 02:47:30;;;;;;;;;;;17.40;99.90;;;;;;5104907;28;19982;-79
2022/08/02 02:49:57;;;;;;;;;;;17.40;99.90;;;;;;5095925;28;19923;-77
2022/08/02 02:52:27;;;;;;;;;;;17.40;99.90;;;;;;5102952;28;19976;-76
2022/08/02 02:54:54;;;;;;;;;;;17.30;99.90;;;;;;5099188;28;19978;-76
2022/08/02 02:57:21;;;;;;;;;;;17.30;99.90;;;;;;5106993;28;20436;-76
2022/08/02 02:59:48;;;;;;;;;;;17.30;99.90;;;;;;5108178;28;19970;-77
2022/08/02 03:02:15;;;;;;;;;;;17.20;99.90;;;;;;5101212;28;19999;-77
2022/08/02 03:04:43;;;;;;;;;;;17.20;99.90;;;;;;5107403;28;20398;-77
2022/08/02 03:07:10;;;;;;;;;;;17.20;99.90;;;;;;5101270;28;20362;-77
2022/08/02 03:09:38;;;;;;;;;;;17.20;99.90;;;;;;5109794;28;19959;-77
2022/08/02 03:12:06;;;;;;;;;;;17.20;99.90;;;;;;5106853;28;19923;-77
2022/08/02 03:14:33;;;;;;;;;;;17.20;99.90;;;;;;5100266;28;19983;-77
2022/08/02 03:17:00;;;;;;;;;;;;;;;;;;5102279;28;19930;-77
2022/08/02 03:19:27;;;;;;;;;;;;;;;;;;5095206;28;20050;-78
2022/08/02 03:21:54;;;;;;;;;;;;;;;;;;5106871;28;20010;-78
2022/08/02 03:24:21;;;;;;;;;;;;;;;;;;5100742;28;20003;-78
2022/08/02 03:26:48;;;;;;;;;;;;;;;;;;5098753;28;19962;-78
2022/08/02 03:29:15;;;;;;;;;;;;;;;;;;5098485;28;19980;-78
2022/08/02 03:31:42;;;;;;;;;;;;;;;;;;5106552;28;19924;-79
2022/08/02 03:34:09;;;;;;;;;;;;;;;;;;5098278;28;20275;-77
2022/08/02 03:36:36;;;;;;;;;;;;;;;;;;5108066;28;19955;-78
2022/08/02 03:39:03;;;;;;;;;;;;;;;;;;5104394;28;20032;-78
2022/08/02 03:41:30;;;;;;;;;;;;;;;;;;5094879;28;19923;-77
2022/08/02 03:43:57;;;;;;;;;;;;;;;;;;5097088;28;19924;-77
2022/08/02 03:46:24;;;;;;;;;;;;;;;;;;5106944;28;19924;-78
2022/08/02 03:48:51;;;;;;;;;;;;;;;;;;5104736;28;19924;-77
2022/08/02 03:51:18;;;;;;;;;;;;;;;;;;5092729;28;19938;-78
2022/08/02 03:53:45;;;;;;;;;;;;;;;;;;5104016;28;19930;-77
2022/08/02 03:56:12;;;;;;;;;;;;;;;;;;5099271;28;20030;-77
2022/08/02 03:58:39;;;;;;;;;;;;;;;;;;5098980;28;20341;-76
2022/08/02 04:01:06;;;;;;;;;;;;;;;;;;5101464;28;19988;-76
2022/08/02 04:03:33;;;;;;;;;;;;;;;;;;5100464;28;20010;-76
2022/08/02 04:06:00;;;;;;;;;;;;;;;;;;5103729;28;20006;-76
2022/08/02 04:08:28;;;;;;;;;;;17.30;99.90;;;;;;5100894;28;19986;-76
2022/08/02 04:13:39;;;;;;;;;;;17.40;99.90;;;;;;5093694;28;20058;-78
2022/08/02 04:16:09;;;;;;;;;;;17.30;99.90;;;;;;5107449;28;20480;-75
2022/08/02 04:18:40;;;;;;;;;;;17.30;99.90;;;;;;5100665;28;19937;-72
2022/08/02 04:21:09;;;;;;;;;;;17.30;99.90;;;;;;5104238;28;20447;-74
2022/08/02 04:23:37;;;;;;;;;;;17.30;99.90;;;;;;5108353;28;20007;-75
2022/08/02 04:26:05;;;;;;;;;;;17.20;99.90;;;;;;5093062;28;19971;-75
2022/08/02 04:28:32;;;;;;;;;;;17.20;99.90;;;;;;5100565;28;20336;-75
2022/08/02 04:31:00;;;;;;;;;;;17.20;99.90;;;;;;5098578;28;19924;-75
2022/08/02 04:33:27;;;;;;;;;;;17.20;99.90;;;;;;5096695;28;19974;-75
2022/08/02 04:35:53;;;;;;;;;;;17.20;99.90;;;;;;5104024;28;19931;-75
2022/08/02 04:38:20;;;;;;;;;;;17.20;99.90;;;;;;5093989;28;19934;-75
2022/08/02 04:40:52;;;;;;;;;;;17.20;99.90;;;;;;5110638;28;20002;-75
2022/08/02 04:43:19;;;;;;;;;;;17.20;99.90;;;;;;5105108;28;19930;-75
2022/08/02 04:45:46;;;;;;;;;;;17.20;99.90;;;;;;5102406;28;19967;-75
2022/08/02 04:48:13;;;;;;;;;;;17.20;99.90;;;;;;5109166;28;19927;-75
2022/08/02 04:50:40;;;;;;;;;;;17.20;99.90;;;;;;5097679;28;20015;-76
2022/08/02 04:53:07;;;;;;;;;;;17.20;99.90;;;;;;5100918;28;19924;-76
2022/08/02 04:55:33;;;;;;;;;;;17.20;99.90;;;;;;5099555;28;19928;-76
2022/08/02 04:58:01;;;;;;;;;;;17.30;99.90;;;;;;5108364;28;19932;-76
2022/08/02 05:00:29;;;;;;;;;;;17.20;99.90;;;;;;5102242;28;19973;-78
2022/08/02 05:02:56;;;;;;;;;;;17.30;99.90;;;;;;5102763;28;20132;-78
2022/08/02 05:05:23;;;;;;;;;;;;;;;;;;5101478;28;19963;-78
2022/08/02 05:07:50;;;;;;;;;;;;;;;;;;5107100;28;20027;-77
2022/08/02 05:10:17;;;;;;;;;;;;;;;;;;5103606;28;20015;-77
2022/08/02 05:12:44;;;;;;;;;;;;;;;;;;5106274;28;19924;-76
2022/08/02 05:15:11;;;;;;;;;;;;;;;;;;5109469;28;20006;-76
2022/08/02 05:17:38;;;;;;;;;;;;;;;;;;5101672;28;20294;-75
2022/08/02 05:20:05;;;;;;;;;;;;;;;;;;5096146;28;20019;-76
2022/08/02 05:22:32;;;;;;;;;;;;;;;;;;5102364;28;19959;-77
2022/08/02 05:24:59;;;;;;;;;;;;;;;;;;5098215;27;19959;-78
2022/08/02 05:27:26;;;;;;;;;;;;;;;;;;5102773;28;19954;-78
2022/08/02 05:29:53;;;;;;;;;;;;;;;;;;5103669;28;20023;-77
2022/08/02 05:32:20;;;;;;;;;;;;;;;;;;5105096;28;20036;-77
2022/08/02 05:34:47;;;;;;;;;;;;;;;;;;5106713;27;19924;-78
2022/08/02 05:37:14;;;;;;;;;;;;;;;;;;5111014;28;20466;-76
2022/08/02 05:39:41;;;;;;;;;;;;;;;;;;5103661;28;19936;-78
2022/08/02 05:42:08;;;;;;;;;;;;;;;;;;5101619;28;19947;-78
2022/08/02 05:44:35;;;;;;;;;;;;;;;;;;5093100;28;19930;-77
2022/08/02 05:47:02;;;;;;;;;;;;;;;;;;5108175;28;20385;-78
2022/08/02 05:49:29;;;;;;;;;;;;;;;;;;5105009;28;19970;-77
2022/08/02 05:51:58;;;;;;;;;;;;;;;;;;5106893;28;19977;-77
2022/08/02 05:54:25;;;;;;;;;;;;;;;;;;5104599;28;19924;-77
2022/08/02 05:56:52;;;;;;;;;;;;;;;;;;5097720;28;20008;-77
2022/08/02 05:59:19;;;;;;;;;;;;;;;;;;5098793;28;19931;-77
2022/08/02 06:01:46;;;;;;;;;;;;;;;;;;5104803;28;19950;-78
2022/08/02 06:04:13;;;;;;;;;;;;;;;;;;5103540;28;19935;-77
2022/08/02 06:06:40;;;;;;;;;;;;;;;;;;5106198;28;19924;-77
2022/08/02 06:09:07;;;;;;;;;;;;;;;;;;5106945;28;20355;-78
2022/08/02 06:11:34;;;;;;;;;;;;;;;;;;5102242;27;21869;-76
2022/08/02 06:14:01;;;;;;;;;;;;;;;;;;5106793;27;20349;-77
2022/08/02 06:16:28;;;;;;;;;;;;;;;;;;5100034;27;19948;-76
2022/08/02 06:18:55;;;;;;;;;;;;;;;;;;5096104;28;19951;-76
2022/08/02 06:21:22;;;;;;;;;;;;;;;;;;5103708;27;20018;-77
2022/08/02 06:23:49;;;;;;;;;;;;;;;;;;5109912;27;19959;-77
2022/08/02 06:26:16;;;;;;;;;;;;;;;;;;5096797;28;19970;-76
2022/08/02 06:28:43;;;;;;;;;;;;;;;;;;5108240;28;19955;-74
2022/08/02 06:31:10;;;;;;;;;;;;;;;;;;5100037;28;19959;-75
2022/08/02 06:33:37;;;;;;;;;;;;;;;;;;5100996;28;20016;-74
2022/08/02 06:36:04;;;;;;;;;;;;;;;;;;5094042;28;20267;-74
2022/08/02 06:38:31;;;;;;;;;;;;;;;;;;5096936;28;19931;-75
2022/08/02 06:40:58;;;;;;;;;;;;;;;;;;5093230;28;19928;-75
2022/08/02 06:43:25;;;;;;;;;;;;;;;;;;5096773;27;19971;-75
2022/08/02 06:45:52;;;;;;;;;;;;;;;;;;5108208;28;20399;-73
2022/08/02 06:48:19;;;;;;;;;;;;;;;;;;5092651;28;22450;-74
2022/08/02 06:50:46;;;;;;;;;;;;;;;;;;5098763;28;19932;-74
2022/08/02 06:53:13;;;;;;;;;;;;;;;;;;5094693;28;19998;-75
2022/08/02 06:55:40;;;;;;;;;;;;;;;;;;5095508;28;19931;-75
2022/08/02 06:58:07;;;;;;;;;;;;;;;;;;5099768;28;20006;-75
2022/08/02 07:00:34;;;;;;;;;;;;;;;;;;5099702;28;19931;-75
2022/08/02 07:03:01;;;;;;;;;;;;;;;;;;5095087;28;20617;-76
2022/08/02 07:05:28;;;;;;;;;;;;;;;;;;5098981;27;19928;-77
2022/08/02 07:07:55;;;;;;;;;;;;;;;;;;5100585;28;20343;-76
2022/08/02 07:10:22;;;;;;;;;;;;;;;;;;5101342;27;19925;-84
2022/08/02 07:12:49;;;;;;;;;;;;;;;;;;5102138;27;19930;-85
2022/08/02 07:15:16;;;;;;;;;;;;;;;;;;5092566;27;19930;-82
2022/08/02 07:17:43;;;;;;;;;;;;;;;;;;5098961;28;19935;-83
2022/08/02 07:20:10;;;;;;;;;;;;;;;;;;5102991;27;19978;-84
2022/08/02 07:22:37;;;;;;;;;;;;;;;;;;5097397;28;19930;-77
2022/08/02 07:25:04;;;;;;;;;;;;;;;;;;5095970;28;19924;-78
2022/08/02 07:27:31;;;;;;;;;;;;;;;;;;5100548;27;20024;-77
2022/08/02 07:29:58;;;;;;;;;;;;;;;;;;5111076;27;19990;-78
2022/08/02 07:32:25;;;;;;;;;;;;;;;;;;5096544;28;19975;-79
2022/08/02 07:34:52;;;;;;;;;;;;;;;;;;5106292;27;19967;-77
2022/08/02 07:37:19;;;;;;;;;;;;;;;;;;5099646;27;20341;-78
2022/08/02 07:39:46;;;;;;;;;;;;;;;;;;5098582;28;19951;-79
2022/08/02 07:42:13;;;;;;;;;;;;;;;;;;5094127;28;20016;-78
2022/08/02 07:44:40;;;;;;;;;;;;;;;;;;5086513;28;19932;-78
2022/08/02 07:47:07;;;;;;;;;;;;;;;;;;5088944;28;19927;-78
2022/08/02 07:49:34;;;;;;;;;;;;;;;;;;5085973;28;20023;-80
2022/08/02 07:52:01;;;;;;;;;;;;;;;;;;5088058;28;19931;-76
2022/08/02 07:54:28;;;;;;;;;;;;;;;;;;5086400;27;21425;-78
2022/08/02 07:56:55;;;;;;;;;;;;;;;;;;5090956;28;20382;-78
2022/08/02 07:59:22;;;;;;;;;;;;;;;;;;5095371;28;19924;-78
2022/08/02 08:01:50;;;;;;;;;;;;;;;;;;5095906;28;20006;-76
2022/08/02 08:04:17;;;;;;;;;;;;;;;;;;5090817;28;19932;-79
2022/08/02 08:06:44;;;;;;;;;;;;;;;;;;5092857;28;20303;-79
2022/08/02 08:09:11;;;;;;;;;;;;;;;;;;5094460;27;20015;-79
2022/08/02 08:11:38;;;;;;;;;;;;;;;;;;5097844;28;20018;-78
2022/08/02 08:14:05;;;;;;;;;;;;;;;;;;5098840;27;20023;-77
2022/08/02 08:16:32;;;;;;;;;;;;;;;;;;5102930;27;20004;-83
2022/08/02 08:18:59;;;;;;;;;;;;;;;;;;5101028;28;19965;-77
2022/08/02 08:21:26;;;;;;;;;;;;;;;;;;5098117;28;19923;-77
2022/08/02 08:23:53;;;;;;;;;;;;;;;;;;5095396;28;19930;-78
2022/08/02 08:26:20;;;;;;;;;;;;;;;;;;5105868;27;19938;-76
2022/08/02 08:28:47;;;;;;;;;;;;;;;;;;5103996;27;19928;-78
2022/08/02 08:31:14;;;;;;;;;;;;;;;;;;5113411;27;20053;-79
2022/08/02 08:33:41;;;;;;;;;;;;;;;;;;5098552;28;20022;-78
2022/08/02 08:36:08;;;;;;;;;;;;;;;;;;5108293;27;20045;-76
2022/08/02 08:38:35;;;;;;;;;;;;;;;;;;5101682;28;20022;-78
2022/08/02 08:41:02;;;;;;;;;;;;;;;;;;5096343;27;19959;-80
2022/08/02 08:43:29;;;;;;;;;;;;;;;;;;5102028;28;19970;-79
2022/08/02 08:45:57;;;;;;;;;;;;;;;;;;5097466;28;19931;-80
2022/08/02 08:48:24;;;;;;;;;;;;;;;;;;5106933;27;20448;-78
2022/08/02 08:50:51;;;;;;;;;;;;;;;;;;5097021;28;20533;-77
2022/08/02 08:53:18;;;;;;;;;;;;;;;;;;5096857;28;19967;-78
2022/08/02 08:55:45;;;;;;;;;;;;;;;;;;5104673;28;20010;-77
2022/08/02 08:58:12;;;;;;;;;;;;;;;;;;5105373;27;20027;-79
2022/08/02 09:00:40;;;;;;;;;;;;;;;;;;5103542;27;20455;-79
2022/08/02 09:03:07;;;;;;;;;;;;;;;;;;5101198;27;19928;-78
2022/08/02 09:05:36;;;;;;;;;;;30.50;77.80;;;;;;5104072;27;19928;-78
2022/08/02 09:08:03;;;;;;;;;;;29.60;73.90;;;;;;5104243;27;19924;-77
2022/08/02 09:10:37;;;;;;;;;;;29.00;72.50;;;;;;5096697;27;19969;-77
2022/08/02 09:13:08;;;;;;;;;;;28.60;73.90;;;;;;5101896;27;20055;-79
2022/08/02 09:15:35;;;;;;;;;;;29.10;74.00;;;;;;5101409;27;19953;-73
2022/08/02 09:18:02;;;;;;;;;;;29.20;74.90;;;;;;5095119;28;20030;-74
2022/08/02 09:20:29;;;;;;;;;;;29.10;75.20;;;;;;5104667;28;19923;-73
2022/08/02 09:23:06;;;;;;;;;;;29.80;74.80;;;;;;5097797;27;20431;-72
2022/08/02 09:25:33;;;;;;;;;;;30.30;75.10;;;;;;5101731;27;20002;-71
2022/08/02 09:28:00;;;;;;;;;;;31.00;73.80;;;;;;5103115;27;20033;-72
2022/08/02 09:30:27;;;;;;;;;;;31.80;69.10;;;;;;5106913;27;19977;-73
2022/08/02 09:32:54;;;;;;;;;;;30.80;36.00;;;;;;5098752;28;19998;-73
2022/08/02 09:35:31;;;;;;;;;;;29.60;43.90;;;;;;5104622;28;19959;-74
2022/08/02 09:38:07;;;;;;;;;;;28.90;33.20;;;;;;5101630;28;20286;-80
2022/08/02 09:40:36;;;;;;;;;;;28.70;34.40;;;;;;5102909;28;19991;-81
2022/08/02 09:43:03;;;;;;;;;;;28.60;33.50;;;;;;5099756;28;19924;-80
2022/08/02 09:45:30;;;;;;;;;;;29.00;31.70;;;;;;5103371;27;19978;-80
2022/08/02 09:47:57;;;;;;;;;;;29.00;30.80;;;;;;5106164;27;19951;-81
2022/08/02 09:50:23;;;;;;;;;;;28.60;32.30;;;;;;5107963;27;19969;-81
2022/08/02 09:52:50;;;;;;;;;;;28.70;32.90;;;;;;5102173;27;21675;-80
2022/08/02 09:55:17;;;;;;;;;;;29.30;32.60;;;;;;5101792;28;19930;-81
2022/08/02 09:57:45;;;;;;;;;;;28.90;33.10;;;;;;5102180;28;19932;-81
2022/08/02 10:00:12;;;;;;;;;;;29.10;32.60;;;;;;5097141;28;19932;-81
2022/08/02 10:02:39;;;;;;;;;;;29.30;32.30;;;;;;5101543;27;20010;-80
2022/08/02 10:05:06;;;;;;;;;;;29.20;32.00;;;;;;5108403;27;19931;-77
2022/08/02 10:07:33;;;;;;;;;;;29.30;31.20;;;;;;5101747;28;19924;-77
2022/08/02 10:09:59;;;;;;;;;;;29.50;28.60;;;;;;5095368;27;19967;-76
2022/08/02 10:12:26;;;;;;;;;;;29.00;29.30;;;;;;5100406;27;20018;-76
2022/08/02 10:14:54;;;;;;;;;;;28.40;30.00;;;;;;5098609;28;20490;-76
2022/08/02 10:17:21;;;;;;;;;;;28.10;31.30;;;;;;5110729;27;20181;-73
2022/08/02 10:19:48;;;;;;;;;;;27.80;33.60;;;;;;5099719;27;19931;-76
2022/08/02 10:22:15;;;;;;;;;;;27.90;33.60;;;;;;5104788;28;20023;-76
2022/08/02 10:24:42;;;;;;;;;;;27.90;34.50;;;;;;5107611;28;19932;-78
2022/08/02 10:27:13;;;;;;;;;;;28.20;33.20;;;;;;5108760;27;19978;-81
2022/08/02 10:29:40;;;;;;;;;;;28.10;33.10;;;;;;5102725;28;20014;-80
2022/08/02 10:32:10;;;;;;;;;;;27.70;33.40;;;;;;5095965;28;19971;-80
2022/08/02 10:34:40;;;;;;;;;;;27.50;33.80;;;;;;5101683;27;20306;-81
2022/08/02 10:37:08;;;;;;;;;;;27.20;34.50;;;;;;5096703;27;20044;-80
2022/08/02 10:39:38;;;;;;;;;;;27.00;35.70;;;;;;5103163;27;19963;-80
2022/08/02 10:42:05;;;;;;;;;;;27.20;35.60;;;;;;5095809;27;20442;-80
2022/08/02 10:44:33;;;;;;;;;;;27.40;33.70;;;;;;5099925;27;20027;-79
2022/08/02 10:47:20;;;;;;;;;;;27.30;32.90;;;;;;5099228;27;20035;-79
2022/08/02 10:49:51;;;;;;;;;;;27.10;33.10;;;;;;5098486;27;19930;-79
2022/08/02 10:52:18;;;;;;;;;;;27.00;36.10;;;;;;5101501;27;20010;-80
2022/08/02 10:54:48;;;;;;;;;;;27.00;35.60;;;;;;5102706;28;19931;-79
2022/08/02 10:57:16;;;;;;;;;;;27.30;35.70;;;;;;5100509;27;19930;-75
2022/08/02 10:59:43;;;;;;;;;;;27.50;34.30;;;;;;5100347;28;19935;-81
2022/08/02 11:02:11;;;;;;;;;;;27.40;34.90;;;;;;5094881;28;19999;-79
2022/08/02 11:04:56;;;;;;;;;;;27.70;35.00;;;;;;5093403;28;20457;-79
2022/08/02 11:07:32;;;;;;;;;;;27.80;34.70;;;;;;5092487;28;19938;-80
2022/08/02 11:10:16;;;;;;;;;;;27.70;36.40;;;;;;5094308;28;20139;-79
2022/08/02 11:12:58;;;;;;;;;;;27.80;33.70;;;;;;5091319;28;19931;-79
2022/08/02 11:15:25;;;;;;;;;;;27.70;33.70;;;;;;5091370;28;20027;-76
2022/08/02 11:17:53;;;;;;;;;;;27.60;32.70;;;;;;5087066;27;19959;-79
2022/08/02 11:20:20;;;;;;;;;;;27.40;33.90;;;;;;5093201;28;20019;-79
2022/08/02 11:22:49;;;;;;;;;;;27.40;34.70;;;;;;5091117;28;19936;-79
2022/08/02 11:25:31;;;;;;;;;;;27.30;35.00;;;;;;5090615;28;19930;-79
2022/08/02 11:27:59;;;;;;;;;;;27.20;35.40;;;;;;5096566;27;19938;-78
2022/08/02 11:30:26;;;;;;;;;;;27.20;36.00;;;;;;5106994;28;22998;-78
2022/08/02 11:32:55;;;;;;;;;;;27.40;35.60;;;;;;5098396;27;20381;-79
2022/08/02 11:35:22;;;;;;;;;;;27.60;34.60;;;;;;5099481;28;19970;-79
2022/08/02 11:37:50;;;;;;;;;;;27.60;35.00;;;;;;5095794;28;19950;-78
2022/08/02 11:40:17;;;;;;;;;;;27.50;35.50;;;;;;5104744;28;20034;-79
2022/08/02 11:42:45;;;;;;;;;;;27.80;35.20;;;;;;5093177;28;20203;-77
2022/08/02 11:45:12;;;;;;;;;;;28.20;35.00;;;;;;5106345;28;19966;-78
2022/08/02 11:47:45;;;;;;;;;;;27.90;34.60;;;;;;5104168;28;20031;-78
2022/08/02 11:50:12;;;;;;;;;;;28.00;35.10;;;;;;5093691;28;19992;-79
2022/08/02 11:52:38;;;;;;;;;;;28.00;34.70;;;;;;5087834;28;19931;-79
2022/08/02 11:55:09;;;;;;;;;;;27.80;34.70;;;;;;5095883;28;20014;-79
2022/08/02 11:57:36;;;;;;;;;;;27.70;35.70;;;;;;5094625;28;19928;-80
2022/08/02 12:00:04;;;;;;;;;;;27.90;35.40;;;;;;5088650;28;20448;-80
2022/08/02 12:02:32;;;;;;;;;;;27.90;35.50;;;;;;5099526;28;19982;-80
2022/08/02 12:04:59;;;;;;;;;;;27.90;36.30;;;;;;5099301;28;20557;-79
2022/08/02 12:07:27;;;;;;;;;;;28.10;35.40;;;;;;5096286;28;19936;-78
2022/08/02 12:09:58;;;;;;;;;;;28.00;36.20;;;;;;5104427;28;20379;-79
2022/08/02 12:12:27;;;;;;;;;;;28.20;35.20;;;;;;5099454;28;20018;-79
2022/08/02 12:14:53;;;;;;;;;;;28.30;35.30;;;;;;5090952;28;20060;-78
2022/08/02 12:20:07;;;;;;;;;;;28.10;34.70;;;;;;5095368;28;19938;-79
2022/08/02 12:22:36;;;;;;;;;;;27.80;36.00;;;;;;5093077;28;20026;-84
2022/08/02 12:25:15;;;;;;;;;;;27.80;36.30;;;;;;5092149;28;19934;-79
2022/08/02 12:27:43;;;;;;;;;;;27.60;37.20;;;;;;5098596;28;19974;-81
2022/08/02 12:30:11;;;;;;;;;;;27.80;36.90;;;;;;5098198;28;19924;-82
2022/08/02 12:32:38;;;;;;;;;;;27.60;37.40;;;;;;5092501;28;19924;-81
2022/08/02 12:35:06;;;;;;;;;;;27.70;37.90;;;;;;5094876;28;19975;-78
2022/08/02 12:37:34;;;;;;;;;;;27.80;37.90;;;;;;5095601;28;20391;-76
2022/08/02 12:40:15;;;;;;;;;;;27.80;38.20;;;;;;5087830;28;20013;-77
2022/08/02 12:42:47;;;;;;;;;;;28.00;38.00;;;;;;5091971;28;19932;-77
2022/08/02 12:45:13;;;;;;;;;;;28.20;38.30;;;;;;5094947;28;20016;-77
2022/08/02 12:47:44;;;;;;;;;;;28.40;37.40;;;;;;5088622;28;19924;-74
2022/08/02 12:50:12;;;;;;;;;;;28.20;37.60;;;;;;5097852;28;19932;-75
2022/08/02 12:52:38;;;;;;;;;;;28.10;37.90;;;;;;5088835;28;19954;-76
2022/08/02 12:55:14;;;;;;;;;;;28.40;37.50;;;;;;5092338;28;20022;-76
2022/08/02 12:57:52;;;;;;;;;;;28.30;37.70;;;;;;5101971;28;20023;-72
2022/08/02 13:00:23;;;;;;;;;;;28.40;37.80;;;;;;5102006;28;20026;-77
2022/08/02 13:02:49;;;;;;;;;;;28.40;37.10;;;;;;5098221;28;19940;-77
2022/08/02 13:05:16;;;;;;;;;;;28.20;37.20;;;;;;5099243;28;19923;-75
2022/08/02 13:07:43;;;;;;;;;;;28.30;38.00;;;;;;5106783;28;19923;-77
2022/08/02 13:10:09;;;;;;;;;;;28.20;38.60;;;;;;5105325;28;20423;-75
2022/08/02 13:12:38;;;;;;;;;;;28.50;38.50;;;;;;5099457;28;19938;-77
2022/08/02 13:15:07;;;;;;;;;;;28.60;38.00;;;;;;5106222;28;19932;-79
2022/08/02 13:17:33;;;;;;;;;;;28.50;37.90;;;;;;5096766;28;19930;-74
2022/08/02 13:20:00;;;;;;;;;;;28.70;38.00;;;;;;5101888;28;20022;-75
2022/08/02 13:22:27;;;;;;;;;;;28.60;37.60;;;;;;5102323;28;19924;-76
2022/08/02 13:24:53;;;;;;;;;;;28.40;38.00;;;;;;5104749;28;19923;-75
2022/08/02 13:27:20;;;;;;;;;;;28.50;38.40;;;;;;5107190;28;19932;-72
2022/08/02 13:29:47;;;;;;;;;;;28.40;38.70;;;;;;5099716;28;19930;-76
2022/08/02 13:32:16;;;;;;;;;;;28.40;38.30;;;;;;5101198;28;19969;-79
2022/08/02 13:34:42;;;;;;;;;;;28.40;38.70;;;;;;5095663;28;20022;-77
2022/08/02 13:37:09;;;;;;;;;;;28.40;38.70;;;;;;5097692;28;19975;-75
2022/08/02 13:39:36;;;;;;;;;;;28.40;38.70;;;;;;5098261;27;19939;-75
2022/08/02 13:42:03;;;;;;;;;;;28.70;38.90;;;;;;5096020;28;19983;-75
2022/08/02 13:44:29;;;;;;;;;;;29.00;38.50;;;;;;5096287;27;20702;-76
2022/08/02 13:46:56;;;;;;;;;;;29.20;37.80;;;;;;5092809;28;20011;-74
2022/08/02 13:49:24;;;;;;;;;;;29.10;37.90;;;;;;5092414;28;20007;-76
2022/08/02 13:51:51;;;;;;;;;;;28.90;37.90;;;;;;5092876;28;20343;-76
2022/08/02 13:54:18;;;;;;;;;;;28.60;38.60;;;;;;5093714;28;20019;-75
2022/08/02 13:56:45;;;;;;;;;;;28.60;38.60;;;;;;5102274;27;19967;-73
2022/08/02 13:59:11;;;;;;;;;;;28.80;39.00;;;;;;5096047;28;19974;-74
2022/08/02 14:01:38;;;;;;;;;;;29.00;38.30;;;;;;5090410;27;19932;-76
2022/08/02 14:04:05;;;;;;;;;;;28.80;38.40;;;;;;5086874;28;19951;-75
2022/08/02 14:06:33;;;;;;;;;;;29.00;38.30;;;;;;5086937;28;19932;-75
2022/08/02 14:09:00;;;;;;;;;;;29.40;38.20;;;;;;5095524;27;19935;-75
2022/08/02 14:11:26;;;;;;;;;;;29.20;38.10;;;;;;5093011;27;20034;-75
2022/08/02 14:13:53;;;;;;;;;;;29.40;37.30;;;;;;5090609;27;20011;-75
2022/08/02 14:16:20;;;;;;;;;;;29.30;37.40;;;;;;5095386;28;19984;-76
2022/08/02 14:18:46;;;;;;;;;;;29.20;37.90;;;;;;5091082;28;19935;-76
2022/08/02 14:21:13;;;;;;;;;;;29.10;37.50;;;;;;5091590;28;19975;-76
2022/08/02 14:23:41;;;;;;;;;;;29.30;37.60;;;;;;5092983;28;19923;-77
2022/08/02 14:26:08;;;;;;;;;;;29.40;37.40;;;;;;5095500;27;20532;-76
2022/08/02 14:28:35;;;;;;;;;;;29.50;37.10;;;;;;5095369;28;19924;-75
2022/08/02 14:31:02;;;;;;;;;;;29.40;37.20;;;;;;5094646;28;20018;-77
2022/08/02 14:33:28;;;;;;;;;;;29.60;37.00;;;;;;5095127;28;20014;-79
2022/08/02 14:35:56;;;;;;;;;;;29.60;37.10;;;;;;5094642;27;19932;-78
2022/08/02 14:38:23;;;;;;;;;;;29.30;36.80;;;;;;5091698;28;19932;-78
2022/08/02 14:40:51;;;;;;;;;;;29.30;37.50;;;;;;5099426;27;19924;-77
2022/08/02 14:45:58;;;;;;;;;;;29.50;38.00;;;;;;5091518;28;19936;-76
2022/08/02 14:48:25;;;;;;;;;;;29.70;37.20;;;;;;5098926;27;20018;-82
2022/08/02 14:50:51;;;;;;;;;;;29.70;37.30;;;;;;5093778;28;19924;-81
2022/08/02 14:53:18;;;;;;;;;;;29.70;37.40;;;;;;5096388;28;19971;-78
2022/08/02 14:55:45;;;;;;;;;;;29.80;37.60;;;;;;5096286;27;19976;-76
2022/08/02 14:58:13;;;;;;;;;;;29.80;37.40;;;;;;5093028;27;20006;-75
2022/08/02 15:00:40;;;;;;;;;;;29.60;38.30;;;;;;5099801;27;20390;-74
2022/08/02 15:03:06;;;;;;;;;;;29.80;37.60;;;;;;5100053;27;19970;-80
2022/08/02 15:05:34;;;;;;;;;;;29.90;37.80;;;;;;5092057;27;20025;-76
2022/08/02 15:08:00;;;;;;;;;;;29.90;37.20;;;;;;5098943;27;19931;-75
2022/08/02 15:10:27;;;;;;;;;;;29.90;37.60;;;;;;5103061;27;19956;-76
2022/08/02 15:12:54;;;;;;;;;;;29.90;37.60;;;;;;5090680;28;19939;-76